sensor_id;sensor_type;location;lat;lon;timestamp;pressure;altitude;pressure_sealevel;temperature;humidity
6150;BME280;3106;42.670;23.318;2022-07-29T00:01:24;94596.69;;;20.32;100.00
6150;BME280;3106;42.670;23.318;2022-07-29T00:03:51;94605.19;;;20.38;100.00
6150;BME280;3106;42.670;23.318;2022-07-29T00:06:18;94604.75;;;20.43;100.00
6150;BME280;3106;42.670;23.318;2022-07-29T00:08:46;94612.91;;;20.39;100.00
6150;BME280;3106;42.670;23.318;2022-07-29T00:11:13;94616.84;;;20.35;99.83
6150;BME280;3106;42.670;23.318;2022-07-29T00:13:40;94622.28;;;20.35;100.00
6150;BME280;3106;42.670;23.318;2022-07-29T00:16:08;94623.41;;;20.37;100.00
6150;BME280;3106;42.670;23.318;2022-07-29T00:18:35;94623.78;;;20.39;100.00
6150;BME280;3106;42.670;23.318;2022-07-29T00:21:01;94622.22;;;20.42;100.00
6150;BME280;3106;42.670;23.318;2022-07-29T00:23:28;94614.06;;;20.42;100.00
6150;BME280;3106;42.670;23.318;2022-07-29T00:25:55;94616.38;;;20.47;100.00
6150;BME280;3106;42.670;23.318;2022-07-29T00:28:22;94613.28;;;20.45;100.00
6150;BME280;3106;42.670;23.318;2022-07-29T00:30:49;94613.63;;;20.50;99.99
6150;BME280;3106;42.670;23.318;2022-07-29T00:33:17;94614.00;;;20.52;98.90
6150;BME280;3106;42.670;23.318;2022-07-29T00:35:44;94612.84;;;20.50;99.15
6150;BME280;3106;42.670;23.318;2022-07-29T00:38:10;94611.72;;;20.44;98.69
6150;BME280;3106;42.670;23.318;2022-07-29T00:40:37;94608.25;;;20.43;99.02
6150;BME280;3106;42.670;23.318;2022-07-29T00:43:04;94614.06;;;20.42;99.32
6150;BME280;3106;42.670;23.318;2022-07-29T00:45:31;94615.66;;;20.36;99.54
6150;BME280;3106;42.670;23.318;2022-07-29T00:47:58;94621.59;;;20.24;99.83
6150;BME280;3106;42.670;23.318;2022-07-29T00:50:26;94624.25;;;20.27;99.71
6150;BME280;3106;42.670;23.318;2022-07-29T00:52:53;94629.31;;;20.25;100.00
6150;BME280;3106;42.670;23.318;2022-07-29T00:55:20;94627.78;;;20.24;100.00
6150;BME280;3106;42.670;23.318;2022-07-29T00:57:47;94627.78;;;20.21;100.00
6150;BME280;3106;42.670;23.318;2022-07-29T01:00:18;94623.63;;;20.02;100.00
6150;BME280;3106;42.670;23.318;2022-07-29T01:02:45;94612.84;;;19.82;100.00
6150;BME280;3106;42.670;23.318;2022-07-29T01:05:15;94605.19;;;19.66;100.00
6150;BME280;3106;42.670;23.318;2022-07-29T01:07:45;94618.41;;;19.57;100.00
6150;BME280;3106;42.670;23.318;2022-07-29T01:10:14;94617.25;;;19.48;100.00
6150;BME280;3106;42.670;23.318;2022-07-29T01:12:43;94608.75;;;19.42;100.00
6150;BME280;3106;42.670;23.318;2022-07-29T01:15:11;94604.50;;;19.38;100.00
6150;BME280;3106;42.670;23.318;2022-07-29T01:17:43;94604.13;;;19.29;100.00
6150;BME280;3106;42.670;23.318;2022-07-29T01:20:16;94604.16;;;19.25;100.00
6150;BME280;3106;42.670;23.318;2022-07-29T01:23:01;94605.31;;;19.24;100.00
6150;BME280;3106;42.670;23.318;2022-07-29T01:25:45;94599.94;;;19.17;100.00
6150;BME280;3106;42.670;23.318;2022-07-29T01:31:24;94596.03;;;19.22;100.00
6150;BME280;3106;42.670;23.318;2022-07-29T01:33:56;94585.94;;;19.33;100.00
6150;BME280;3106;42.670;23.318;2022-07-29T01:36:29;94589.41;;;19.37;100.00
6150;BME280;3106;42.670;23.318;2022-07-29T01:39:02;94580.50;;;19.36;100.00
6150;BME280;3106;42.670;23.318;2022-07-29T01:41:32;94582.78;;;19.41;100.00
6150;BME280;3106;42.670;23.318;2022-07-29T01:44:07;94588.59;;;19.43;100.00
6150;BME280;3106;42.670;23.318;2022-07-29T01:46:40;94590.50;;;19.50;100.00
6150;BME280;3106;42.670;23.318;2022-07-29T01:49:11;94592.84;;;19.51;100.00
6150;BME280;3106;42.670;23.318;2022-07-29T01:51:44;94590.13;;;19.51;100.00
6150;BME280;3106;42.670;23.318;2022-07-29T01:54:16;94587.38;;;19.58;100.00
6150;BME280;3106;42.670;23.318;2022-07-29T01:56:48;94581.13;;;19.65;100.00
6150;BME280;3106;42.670;23.318;2022-07-29T01:59:17;94585.03;;;19.64;100.00
6150;BME280;3106;42.670;23.318;2022-07-29T02:01:47;94581.13;;;19.65;100.00
6150;BME280;3106;42.670;23.318;2022-07-29T02:04:16;94582.31;;;19.64;100.00
6150;BME280;3106;42.670;23.318;2022-07-29T02:06:47;94578.84;;;19.63;100.00
6150;BME280;3106;42.670;23.318;2022-07-29T02:09:16;94572.66;;;19.56;100.00
6150;BME280;3106;42.670;23.318;2022-07-29T02:11:48;94569.16;;;19.59;100.00
6150;BME280;3106;42.670;23.318;2022-07-29T02:14:18;94572.28;;;19.57;100.00
6150;BME280;3106;42.670;23.318;2022-07-29T02:16:47;94573.41;;;19.60;100.00
6150;BME280;3106;42.670;23.318;2022-07-29T02:19:17;94565.69;;;19.55;100.00
6150;BME280;3106;42.670;23.318;2022-07-29T02:21:45;94570.31;;;19.58;100.00
6150;BME280;3106;42.670;23.318;2022-07-29T02:24:13;94569.53;;;19.61;100.00
6150;BME280;3106;42.670;23.318;2022-07-29T02:26:42;94566.06;;;19.60;100.00
6150;BME280;3106;42.670;23.318;2022-07-29T02:29:11;94566.41;;;19.66;100.00
6150;BME280;3106;42.670;23.318;2022-07-29T02:31:41;94564.81;;;19.75;100.00
6150;BME280;3106;42.670;23.318;2022-07-29T02:34:14;94560.13;;;19.79;100.00
6150;BME280;3106;42.670;23.318;2022-07-29T02:36:43;94552.00;;;19.79;100.00
6150;BME280;3106;42.670;23.318;2022-07-29T02:39:12;94549.28;;;19.79;100.00
6150;BME280;3106;42.670;23.318;2022-07-29T02:41:42;94552.38;;;19.81;100.00
6150;BME280;3106;42.670;23.318;2022-07-29T02:44:12;94545.03;;;19.78;100.00
6150;BME280;3106;42.670;23.318;2022-07-29T02:46:45;94537.31;;;19.73;100.00
6150;BME280;3106;42.670;23.318;2022-07-29T02:49:17;94539.22;;;19.76;100.00
6150;BME280;3106;42.670;23.318;2022-07-29T02:51:49;94536.16;;;19.74;100.00
6150;BME280;3106;42.670;23.318;2022-07-29T02:54:25;94545.81;;;19.75;100.00
6150;BME280;3106;42.670;23.318;2022-07-29T02:56:53;94544.69;;;19.73;100.00
6150;BME280;3106;42.670;23.318;2022-07-29T02:59:26;94546.28;;;19.63;100.00
6150;BME280;3106;42.670;23.318;2022-07-29T03:01:55;94546.28;;;19.60;100.00
6150;BME280;3106;42.670;23.318;2022-07-29T03:04:26;94543.63;;;19.53;100.00
6150;BME280;3106;42.670;23.318;2022-07-29T03:06:55;94543.66;;;19.46;100.00
6150;BME280;3106;42.670;23.318;2022-07-29T03:09:24;94546.75;;;19.44;100.00
6150;BME280;3106;42.670;23.318;2022-07-29T03:11:51;94537.13;;;19.33;100.00
6150;BME280;3106;42.670;23.318;2022-07-29T03:14:19;94537.91;;;19.30;100.00
6150;BME280;3106;42.670;23.318;2022-07-29T03:16:48;94545.66;;;19.31;100.00
6150;BME280;3106;42.670;23.318;2022-07-29T03:19:16;94537.16;;;19.29;100.00
6150;BME280;3106;42.670;23.318;2022-07-29T03:21:44;94530.94;;;19.29;100.00
6150;BME280;3106;42.670;23.318;2022-07-29T03:24:24;94554.16;;;19.33;100.00
6150;BME280;3106;42.670;23.318;2022-07-29T03:26:51;94554.16;;;19.37;100.00
6150;BME280;3106;42.670;23.318;2022-07-29T03:29:18;94553.75;;;19.42;100.00
6150;BME280;3106;42.670;23.318;2022-07-29T03:31:45;94558.75;;;19.43;100.00
6150;BME280;3106;42.670;23.318;2022-07-29T03:34:12;94563.41;;;19.46;100.00
6150;BME280;3106;42.670;23.318;2022-07-29T03:36:38;94562.31;;;19.33;100.00
6150;BME280;3106;42.670;23.318;2022-07-29T03:39:08;94558.81;;;19.36;100.00
6150;BME280;3106;42.670;23.318;2022-07-29T03:41:36;94562.31;;;19.33;100.00
6150;BME280;3106;42.670;23.318;2022-07-29T03:44:05;94565.00;;;19.37;100.00
6150;BME280;3106;42.670;23.318;2022-07-29T03:46:35;94558.00;;;19.43;100.00
6150;BME280;3106;42.670;23.318;2022-07-29T03:49:04;94561.84;;;19.49;100.00
6150;BME280;3106;42.670;23.318;2022-07-29T03:51:33;94546.38;;;19.42;100.00
6150;BME280;3106;42.670;23.318;2022-07-29T03:54:02;94563.34;;;19.57;100.00
6150;BME280;3106;42.670;23.318;2022-07-29T03:56:34;94571.50;;;19.57;100.00
6150;BME280;3106;42.670;23.318;2022-07-29T03:59:02;94571.50;;;19.60;100.00
6150;BME280;3106;42.670;23.318;2022-07-29T04:01:29;94578.47;;;19.61;100.00
6150;BME280;3106;42.670;23.318;2022-07-29T04:03:59;94580.31;;;19.78;100.00
6150;BME280;3106;42.670;23.318;2022-07-29T04:06:27;94584.91;;;19.88;100.00
6150;BME280;3106;42.670;23.318;2022-07-29T04:08:53;94572.47;;;19.94;100.00
6150;BME280;3106;42.670;23.318;2022-07-29T04:11:20;94569.31;;;20.09;100.00
6150;BME280;3106;42.670;23.318;2022-07-29T04:13:49;94577.72;;;20.25;100.00
6150;BME280;3106;42.670;23.318;2022-07-29T04:16:15;94579.94;;;20.41;100.00
6150;BME280;3106;42.670;23.318;2022-07-29T04:18:42;94571.34;;;20.49;100.00
6150;BME280;3106;42.670;23.318;2022-07-29T04:21:09;94567.75;;;20.63;100.00
6150;BME280;3106;42.670;23.318;2022-07-29T04:23:36;94583.53;;;20.78;100.00
6150;BME280;3106;42.670;23.318;2022-07-29T04:26:03;94575.69;;;20.87;100.00
6150;BME280;3106;42.670;23.318;2022-07-29T04:28:29;94567.47;;;20.94;100.00
6150;BME280;3106;42.670;23.318;2022-07-29T04:30:58;94574.81;;;20.97;99.84
6150;BME280;3106;42.670;23.318;2022-07-29T04:33:24;94576.25;;;21.09;99.49
6150;BME280;3106;42.670;23.318;2022-07-29T04:35:51;94580.81;;;21.19;99.40
6150;BME280;3106;42.670;23.318;2022-07-29T04:38:18;94580.91;;;22.08;97.07
6150;BME280;3106;42.670;23.318;2022-07-29T04:40:45;94594.75;;;24.17;90.11
6150;BME280;3106;42.670;23.318;2022-07-29T04:43:11;94603.47;;;25.71;78.17
6150;BME280;3106;42.670;23.318;2022-07-29T04:45:38;94602.84;;;27.08;70.77
6150;BME280;3106;42.670;23.318;2022-07-29T04:48:07;94606.88;;;27.96;66.14
6150;BME280;3106;42.670;23.318;2022-07-29T04:50:34;94610.50;;;28.14;64.16
6150;BME280;3106;42.670;23.318;2022-07-29T04:53:01;94604.19;;;28.87;62.34
6150;BME280;3106;42.670;23.318;2022-07-29T04:55:27;94605.13;;;29.68;58.67
6150;BME280;3106;42.670;23.318;2022-07-29T04:57:54;94615.50;;;30.96;54.21
6150;BME280;3106;42.670;23.318;2022-07-29T05:00:21;94625.88;;;31.65;51.40
6150;BME280;3106;42.670;23.318;2022-07-29T05:02:48;94625.00;;;32.79;47.92
6150;BME280;3106;42.670;23.318;2022-07-29T05:05:16;94620.69;;;33.41;45.53
6150;BME280;3106;42.670;23.318;2022-07-29T05:07:43;94626.03;;;33.10;45.24
6150;BME280;3106;42.670;23.318;2022-07-29T05:10:10;94626.63;;;33.34;44.62
6150;BME280;3106;42.670;23.318;2022-07-29T05:12:37;94620.66;;;33.95;43.16
6150;BME280;3106;42.670;23.318;2022-07-29T05:15:05;94634.06;;;34.17;42.44
6150;BME280;3106;42.670;23.318;2022-07-29T05:17:32;94626.53;;;34.03;42.63
6150;BME280;3106;42.670;23.318;2022-07-29T05:19:59;94631.19;;;34.56;41.26
6150;BME280;3106;42.670;23.318;2022-07-29T05:22:27;94635.94;;;35.07;39.13
6150;BME280;3106;42.670;23.318;2022-07-29T05:24:54;94636.84;;;35.60;38.81
6150;BME280;3106;42.670;23.318;2022-07-29T05:27:21;94636.59;;;36.11;37.13
6150;BME280;3106;42.670;23.318;2022-07-29T05:29:47;94646.75;;;36.25;36.36
6150;BME280;3106;42.670;23.318;2022-07-29T05:32:14;94644.34;;;36.60;35.74
6150;BME280;3106;42.670;23.318;2022-07-29T05:34:41;94634.75;;;36.72;35.32
6150;BME280;3106;42.670;23.318;2022-07-29T05:37:08;94637.69;;;36.41;35.47
6150;BME280;3106;42.670;23.318;2022-07-29T05:39:36;94639.53;;;35.91;36.72
6150;BME280;3106;42.670;23.318;2022-07-29T05:42:07;94635.13;;;35.32;37.59
6150;BME280;3106;42.670;23.318;2022-07-29T05:44:36;94633.19;;;34.81;38.63
6150;BME280;3106;42.670;23.318;2022-07-29T05:47:03;94628.94;;;34.60;38.92
6150;BME280;3106;42.670;23.318;2022-07-29T05:49:30;94639.34;;;34.91;39.01
6150;BME280;3106;42.670;23.318;2022-07-29T05:51:56;94640.50;;;35.41;37.94
6150;BME280;3106;42.670;23.318;2022-07-29T05:54:23;94639.47;;;35.75;37.20
6150;BME280;3106;42.670;23.318;2022-07-29T05:56:52;94649.69;;;35.58;36.64
6150;BME280;3106;42.670;23.318;2022-07-29T05:59:19;94644.59;;;35.51;36.99
6150;BME280;3106;42.670;23.318;2022-07-29T06:01:46;94636.25;;;35.14;38.09
6150;BME280;3106;42.670;23.318;2022-07-29T06:04:12;94635.94;;;35.43;37.09
6150;BME280;3106;42.670;23.318;2022-07-29T06:06:39;94643.91;;;34.18;38.93
6150;BME280;3106;42.670;23.318;2022-07-29T06:09:06;94634.75;;;33.92;39.76
6150;BME280;3106;42.670;23.318;2022-07-29T06:11:33;94640.50;;;33.34;40.60
6150;BME280;3106;42.670;23.318;2022-07-29T06:14:01;94629.31;;;32.65;41.20
6150;BME280;3106;42.670;23.318;2022-07-29T06:16:28;94632.06;;;32.94;41.67
6150;BME280;3106;42.670;23.318;2022-07-29T06:18:55;94639.66;;;33.62;40.42
6150;BME280;3106;42.670;23.318;2022-07-29T06:21:22;94638.41;;;33.14;41.02
6150;BME280;3106;42.670;23.318;2022-07-29T06:23:49;94640.38;;;32.51;43.19
6150;BME280;3106;42.670;23.318;2022-07-29T06:26:16;94634.84;;;32.80;42.33
6150;BME280;3106;42.670;23.318;2022-07-29T06:28:42;94639.06;;;32.75;42.57
6150;BME280;3106;42.670;23.318;2022-07-29T06:31:11;94629.06;;;33.12;41.42
6150;BME280;3106;42.670;23.318;2022-07-29T06:33:38;94633.84;;;33.26;40.88
6150;BME280;3106;42.670;23.318;2022-07-29T06:36:05;94637.91;;;33.45;40.86
6150;BME280;3106;42.670;23.318;2022-07-29T06:38:32;94637.63;;;33.63;40.39
6150;BME280;3106;42.670;23.318;2022-07-29T06:40:59;94626.41;;;33.72;40.21
6150;BME280;3106;42.670;23.318;2022-07-29T06:43:28;94631.84;;;33.46;40.75
6150;BME280;3106;42.670;23.318;2022-07-29T06:45:58;94630.34;;;32.82;41.69
6150;BME280;3106;42.670;23.318;2022-07-29T06:48:27;94628.06;;;32.37;43.18
6150;BME280;3106;42.670;23.318;2022-07-29T06:50:54;94630.91;;;32.28;43.14
6150;BME280;3106;42.670;23.318;2022-07-29T06:53:20;94625.97;;;31.71;45.89
6150;BME280;3106;42.670;23.318;2022-07-29T06:55:47;94618.56;;;31.53;47.09
6150;BME280;3106;42.670;23.318;2022-07-29T06:58:14;94631.06;;;31.08;47.31
6150;BME280;3106;42.670;23.318;2022-07-29T07:00:43;94618.47;;;31.16;48.11
6150;BME280;3106;42.670;23.318;2022-07-29T07:03:10;94624.63;;;31.20;48.83
6150;BME280;3106;42.670;23.318;2022-07-29T07:05:38;94606.44;;;31.27;48.37
6150;BME280;3106;42.670;23.318;2022-07-29T07:08:05;94614.75;;;30.86;49.68
6150;BME280;3106;42.670;23.318;2022-07-29T07:10:33;94607.25;;;30.87;50.15
6150;BME280;3106;42.670;23.318;2022-07-29T07:13:01;94609.50;;;30.56;50.69
6150;BME280;3106;42.670;23.318;2022-07-29T07:15:28;94614.16;;;29.69;53.04
6150;BME280;3106;42.670;23.318;2022-07-29T07:17:55;94618.97;;;29.29;54.82
6150;BME280;3106;42.670;23.318;2022-07-29T07:20:22;94612.84;;;29.16;55.77
6150;BME280;3106;42.670;23.318;2022-07-29T07:22:51;94601.88;;;28.86;56.30
6150;BME280;3106;42.670;23.318;2022-07-29T07:25:18;94610.34;;;28.70;55.95
6150;BME280;3106;42.670;23.318;2022-07-29T07:27:45;94612.38;;;28.69;57.87
6150;BME280;3106;42.670;23.318;2022-07-29T07:30:12;94608.06;;;28.16;57.57
6150;BME280;3106;42.670;23.318;2022-07-29T07:32:39;94612.03;;;27.94;58.71
6150;BME280;3106;42.670;23.318;2022-07-29T07:35:08;94605.28;;;27.86;59.77
6150;BME280;3106;42.670;23.318;2022-07-29T07:37:35;94610.00;;;27.86;58.85
6150;BME280;3106;42.670;23.318;2022-07-29T07:40:04;94596.50;;;27.79;58.78
6150;BME280;3106;42.670;23.318;2022-07-29T07:42:31;94601.94;;;27.70;59.08
6150;BME280;3106;42.670;23.318;2022-07-29T07:44:58;94607.09;;;27.68;58.96
6150;BME280;3106;42.670;23.318;2022-07-29T07:47:25;94609.13;;;27.55;58.75
6150;BME280;3106;42.670;23.318;2022-07-29T07:49:52;94616.91;;;27.56;58.94
6150;BME280;3106;42.670;23.318;2022-07-29T07:52:21;94614.72;;;27.51;59.13
6150;BME280;3106;42.670;23.318;2022-07-29T07:54:48;94612.75;;;27.52;59.08
6150;BME280;3106;42.670;23.318;2022-07-29T07:57:17;94615.75;;;27.66;59.10
6150;BME280;3106;42.670;23.318;2022-07-29T07:59:44;94609.34;;;28.03;58.51
6150;BME280;3106;42.670;23.318;2022-07-29T08:02:10;94601.50;;;28.14;56.85
6150;BME280;3106;42.670;23.318;2022-07-29T08:04:37;94607.16;;;28.19;55.97
6150;BME280;3106;42.670;23.318;2022-07-29T08:07:06;94604.25;;;28.14;56.11
6150;BME280;3106;42.670;23.318;2022-07-29T08:09:33;94607.75;;;28.36;55.85
6150;BME280;3106;42.670;23.318;2022-07-29T08:12:00;94602.25;;;28.36;55.74
6150;BME280;3106;42.670;23.318;2022-07-29T08:14:30;94603.69;;;28.49;55.81
6150;BME280;3106;42.670;23.318;2022-07-29T08:16:57;94602.56;;;28.68;55.11
6150;BME280;3106;42.670;23.318;2022-07-29T08:19:24;94605.34;;;28.77;54.34
6150;BME280;3106;42.670;23.318;2022-07-29T08:21:51;94599.19;;;28.64;54.53
6150;BME280;3106;42.670;23.318;2022-07-29T08:24:18;94602.13;;;28.39;53.71
6150;BME280;3106;42.670;23.318;2022-07-29T08:27:03;94608.69;;;28.42;53.78
6150;BME280;3106;42.670;23.318;2022-07-29T08:29:31;94603.84;;;28.46;53.27
6150;BME280;3106;42.670;23.318;2022-07-29T08:31:58;94593.38;;;28.62;53.41
6150;BME280;3106;42.670;23.318;2022-07-29T08:34:25;94591.94;;;28.88;53.56
6150;BME280;3106;42.670;23.318;2022-07-29T08:36:52;94608.19;;;28.95;50.55
6150;BME280;3106;42.670;23.318;2022-07-29T08:39:19;94603.94;;;29.03;49.86
6150;BME280;3106;42.670;23.318;2022-07-29T08:41:46;94594.66;;;29.19;50.33
6150;BME280;3106;42.670;23.318;2022-07-29T08:44:13;94605.50;;;29.22;49.32
6150;BME280;3106;42.670;23.318;2022-07-29T08:46:43;94585.91;;;29.20;50.46
6150;BME280;3106;42.670;23.318;2022-07-29T08:49:09;94599.31;;;29.58;48.99
6150;BME280;3106;42.670;23.318;2022-07-29T08:51:39;94593.97;;;29.72;48.26
6150;BME280;3106;42.670;23.318;2022-07-29T08:54:08;94597.78;;;29.92;47.82
6150;BME280;3106;42.670;23.318;2022-07-29T08:56:36;94590.28;;;30.02;46.29
6150;BME280;3106;42.670;23.318;2022-07-29T08:59:03;94581.66;;;30.00;46.38
6150;BME280;3106;42.670;23.318;2022-07-29T09:01:33;94590.72;;;30.09;44.99
6150;BME280;3106;42.670;23.318;2022-07-29T09:04:03;94587.63;;;30.25;45.40
6150;BME280;3106;42.670;23.318;2022-07-29T09:06:32;94589.91;;;30.45;44.11
6150;BME280;3106;42.670;23.318;2022-07-29T09:09:00;94588.09;;;30.24;45.50
6150;BME280;3106;42.670;23.318;2022-07-29T09:11:27;94585.53;;;30.02;45.84
6150;BME280;3106;42.670;23.318;2022-07-29T09:13:54;94578.03;;;29.76;44.74
6150;BME280;3106;42.670;23.318;2022-07-29T09:16:21;94580.59;;;29.44;45.51
6150;BME280;3106;42.670;23.318;2022-07-29T09:18:48;94576.13;;;29.10;47.30
6150;BME280;3106;42.670;23.318;2022-07-29T09:21:17;94584.38;;;29.28;47.84
6150;BME280;3106;42.670;23.318;2022-07-29T09:24:04;94579.72;;;29.64;47.36
6150;BME280;3106;42.670;23.318;2022-07-29T09:26:34;94580.31;;;29.95;45.91
6150;BME280;3106;42.670;23.318;2022-07-29T09:29:08;94582.31;;;30.13;43.47
6150;BME280;3106;42.670;23.318;2022-07-29T09:31:37;94583.81;;;30.23;44.42
6150;BME280;3106;42.670;23.318;2022-07-29T09:34:05;94575.69;;;30.19;42.86
6150;BME280;3106;42.670;23.318;2022-07-29T09:36:38;94580.41;;;30.28;42.83
6150;BME280;3106;42.670;23.318;2022-07-29T09:39:06;94573.81;;;30.34;42.42
6150;BME280;3106;42.670;23.318;2022-07-29T09:41:44;94572.63;;;30.26;43.13
6150;BME280;3106;42.670;23.318;2022-07-29T09:44:11;94570.25;;;30.43;42.12
6150;BME280;3106;42.670;23.318;2022-07-29T09:46:40;94571.19;;;30.40;43.71
6150;BME280;3106;42.670;23.318;2022-07-29T09:49:09;94574.88;;;30.46;43.13
6150;BME280;3106;42.670;23.318;2022-07-29T09:51:38;94567.91;;;30.59;43.81
6150;BME280;3106;42.670;23.318;2022-07-29T09:54:23;94568.06;;;30.65;43.85
6150;BME280;3106;42.670;23.318;2022-07-29T09:56:52;94561.25;;;30.84;43.52
6150;BME280;3106;42.670;23.318;2022-07-29T09:59:19;94555.25;;;31.09;42.57
6150;BME280;3106;42.670;23.318;2022-07-29T10:01:49;94571.44;;;31.01;42.03
6150;BME280;3106;42.670;23.318;2022-07-29T10:04:16;94560.84;;;31.00;42.26
6150;BME280;3106;42.670;23.318;2022-07-29T10:07:00;94551.56;;;31.12;42.54
6150;BME280;3106;42.670;23.318;2022-07-29T10:09:30;94553.44;;;31.29;42.64
6150;BME280;3106;42.670;23.318;2022-07-29T10:12:06;94548.56;;;31.47;41.83
6150;BME280;3106;42.670;23.318;2022-07-29T10:14:33;94537.44;;;31.56;41.59
6150;BME280;3106;42.670;23.318;2022-07-29T10:17:01;94551.22;;;31.65;41.49
6150;BME280;3106;42.670;23.318;2022-07-29T10:19:29;94535.72;;;31.59;41.04
6150;BME280;3106;42.670;23.318;2022-07-29T10:21:57;94533.84;;;31.65;41.13
6150;BME280;3106;42.670;23.318;2022-07-29T10:24:26;94544.28;;;31.84;41.33
6150;BME280;3106;42.670;23.318;2022-07-29T10:26:54;94532.38;;;31.93;40.22
6150;BME280;3106;42.670;23.318;2022-07-29T10:29:22;94529.44;;;31.96;40.79
6150;BME280;3106;42.670;23.318;2022-07-29T10:31:54;94532.66;;;32.09;39.89
6150;BME280;3106;42.670;23.318;2022-07-29T10:34:32;94534.97;;;32.40;39.03
6150;BME280;3106;42.670;23.318;2022-07-29T10:37:07;94526.88;;;32.36;39.14
6150;BME280;3106;42.670;23.318;2022-07-29T10:39:52;94517.72;;;32.30;37.38
6150;BME280;3106;42.670;23.318;2022-07-29T10:42:23;94523.41;;;32.12;37.61
6150;BME280;3106;42.670;23.318;2022-07-29T10:44:51;94520.19;;;31.61;39.06
6150;BME280;3106;42.670;23.318;2022-07-29T10:47:20;94518.25;;;31.76;40.31
6150;BME280;3106;42.670;23.318;2022-07-29T10:49:58;94511.59;;;31.97;40.52
6150;BME280;3106;42.670;23.318;2022-07-29T10:52:25;94493.28;;;32.29;40.83
6150;BME280;3106;42.670;23.318;2022-07-29T10:55:37;94493.63;;;32.51;39.78
6150;BME280;3106;42.670;23.318;2022-07-29T10:58:12;94502.50;;;32.69;37.46
6150;BME280;3106;42.670;23.318;2022-07-29T11:00:40;94494.25;;;32.75;36.54
6150;BME280;3106;42.670;23.318;2022-07-29T11:03:07;94499.06;;;32.94;36.97
6150;BME280;3106;42.670;23.318;2022-07-29T11:05:53;94496.94;;;33.03;37.54
6150;BME280;3106;42.670;23.318;2022-07-29T11:08:24;94488.41;;;33.07;37.79
6150;BME280;3106;42.670;23.318;2022-07-29T11:13:49;94484.59;;;32.85;37.46
6150;BME280;3106;42.670;23.318;2022-07-29T11:16:18;94478.91;;;32.93;36.64
6150;BME280;3106;42.670;23.318;2022-07-29T11:19:19;94486.34;;;33.02;35.65
6150;BME280;3106;42.670;23.318;2022-07-29T11:21:46;94480.16;;;33.12;36.11
6150;BME280;3106;42.670;23.318;2022-07-29T11:24:16;94478.34;;;32.89;36.08
6150;BME280;3106;42.670;23.318;2022-07-29T11:26:45;94471.28;;;32.88;35.79
6150;BME280;3106;42.670;23.318;2022-07-29T11:29:19;94470.75;;;32.85;35.57
6150;BME280;3106;42.670;23.318;2022-07-29T11:31:49;94472.19;;;32.80;36.15
6150;BME280;3106;42.670;23.318;2022-07-29T11:34:24;94475.59;;;32.89;37.19
6150;BME280;3106;42.670;23.318;2022-07-29T11:37:19;94474.34;;;33.10;36.91
6150;BME280;3106;42.670;23.318;2022-07-29T11:42:41;94476.16;;;33.33;36.26
6150;BME280;3106;42.670;23.318;2022-07-29T11:45:10;94460.88;;;33.18;36.31
6150;BME280;3106;42.670;23.318;2022-07-29T11:47:40;94466.88;;;33.36;35.87
6150;BME280;3106;42.670;23.318;2022-07-29T11:50:09;94465.34;;;33.55;35.38
6150;BME280;3106;42.670;23.318;2022-07-29T11:52:37;94466.25;;;33.07;35.20
6150;BME280;3106;42.670;23.318;2022-07-29T11:55:10;94463.94;;;32.86;35.17
6150;BME280;3106;42.670;23.318;2022-07-29T11:57:44;94467.97;;;33.04;36.46
6150;BME280;3106;42.670;23.318;2022-07-29T12:00:21;94460.16;;;33.03;36.96
6150;BME280;3106;42.670;23.318;2022-07-29T12:02:48;94465.56;;;33.32;36.33
6150;BME280;3106;42.670;23.318;2022-07-29T12:05:16;94465.97;;;33.25;35.24
6150;BME280;3106;42.670;23.318;2022-07-29T12:07:43;94458.91;;;33.24;35.29
6150;BME280;3106;42.670;23.318;2022-07-29T12:10:10;94459.50;;;33.13;34.40
6150;BME280;3106;42.670;23.318;2022-07-29T12:12:37;94454.88;;;33.25;34.49
6150;BME280;3106;42.670;23.318;2022-07-29T12:15:17;94454.66;;;33.48;34.57
6150;BME280;3106;42.670;23.318;2022-07-29T12:17:46;94453.53;;;33.60;34.53
6150;BME280;3106;42.670;23.318;2022-07-29T12:20:13;94457.28;;;33.57;34.43
6150;BME280;3106;42.670;23.318;2022-07-29T12:22:48;94465.19;;;33.64;34.04
6150;BME280;3106;42.670;23.318;2022-07-29T12:25:14;94462.06;;;33.57;34.79
6150;BME280;3106;42.670;23.318;2022-07-29T12:27:44;94454.28;;;33.61;33.99
6150;BME280;3106;42.670;23.318;2022-07-29T12:30:13;94457.59;;;33.85;34.27
6150;BME280;3106;42.670;23.318;2022-07-29T12:32:43;94452.13;;;33.96;33.87
6150;BME280;3106;42.670;23.318;2022-07-29T12:35:13;94449.88;;;34.00;33.65
6150;BME280;3106;42.670;23.318;2022-07-29T12:37:42;94447.13;;;34.00;33.27
6150;BME280;3106;42.670;23.318;2022-07-29T12:40:10;94442.22;;;33.64;32.89
6150;BME280;3106;42.670;23.318;2022-07-29T12:42:38;94436.75;;;33.49;34.11
6150;BME280;3106;42.670;23.318;2022-07-29T12:45:06;94440.84;;;33.74;34.09
6150;BME280;3106;42.670;23.318;2022-07-29T12:47:33;94437.72;;;33.66;34.43
6150;BME280;3106;42.670;23.318;2022-07-29T12:50:18;94441.72;;;33.65;34.38
6150;BME280;3106;42.670;23.318;2022-07-29T12:52:45;94436.75;;;33.69;34.15
6150;BME280;3106;42.670;23.318;2022-07-29T12:55:12;94438.81;;;33.74;33.91
6150;BME280;3106;42.670;23.318;2022-07-29T12:57:46;94430.31;;;33.83;33.51
6150;BME280;3106;42.670;23.318;2022-07-29T13:00:14;94421.41;;;34.05;33.22
6150;BME280;3106;42.670;23.318;2022-07-29T13:02:42;94425.97;;;34.08;32.79
6150;BME280;3106;42.670;23.318;2022-07-29T13:05:10;94421.69;;;34.07;32.90
6150;BME280;3106;42.670;23.318;2022-07-29T13:07:39;94426.81;;;33.88;32.45
6150;BME280;3106;42.670;23.318;2022-07-29T13:10:10;94420.28;;;33.66;32.60
6150;BME280;3106;42.670;23.318;2022-07-29T13:12:39;94415.81;;;33.68;33.28
6150;BME280;3106;42.670;23.318;2022-07-29T13:15:13;94410.59;;;33.76;32.97
6150;BME280;3106;42.670;23.318;2022-07-29T13:17:42;94415.69;;;33.83;33.51
6150;BME280;3106;42.670;23.318;2022-07-29T13:20:11;94407.66;;;33.85;33.37
6150;BME280;3106;42.670;23.318;2022-07-29T13:22:41;94413.19;;;33.85;33.27
6150;BME280;3106;42.670;23.318;2022-07-29T13:25:09;94402.84;;;33.85;33.11
6150;BME280;3106;42.670;23.318;2022-07-29T13:27:37;94408.25;;;34.00;32.77